Portada
METAR-TAF:

METAR-TAF

Aeroports :

Paramaribo, Surinam

latitud: 05-27N, longitud: 055-11W, altitud: 16 m

Observació

L'informe es va fer fa 35 minuts, a les 16:00 UTC
Vent 7 kt del Nord/Nord-Est
Temperatura 29°C
Humitat 70%
Pressió 1012 hPa
Visibilitat 10 km o més
Núvols disperses a una alçada de 2500 ft

METAR: SMJP 281600Z 03007KT 9999 SCT025 29/23 Q1012 NOSIG

Hora: 13:35 (16:35 UTC)

Pronòstic

L'informe es va fer fa 6 hores i 35 minuts, a les 10:00 UTC
Pronòstic vàlid del 28 a les 12 UTC al 29 a les 12 UTC
Vent 6 kt del Nord/Nord-Est
Visibilitat 10 km o més
Núvols disperses a una alçada de 2000 ft
Probabilitat 40% :
Temporalment
l' 28 a les 18 UTC al 28 a les 21 UTC
Visibilitat: 5000 m
Núvols disperses a una alçada de 1500 ft
Núvols disperses a una alçada de 2000 ft
xàfecs de pluja, pluja

TAF: SMJP 281000Z 2812/2912 03006KT 9999 SCT020 TX30/2816Z TN22/2908Z PROB40 TEMPO 2818/2821 5000 SHRA RA SCT015 SCT020

Observacions i pronòstics meteorològics de més de 4000 aeroports (METAR i TAF).

Les estacions disponibles són els punts grocs i vermells al mapa.

Posi el ratolí al punt desitjat per veure el nom de l'estació.

Feu clic per veure les observacions i els pronòstics meteorològics.

Per canviar el mapa: feu clic els botons verds amb una creu de color negre per apropar; al botó verd amb un guió per allunyar la imatge; o en les fletxes verdes per a mapes adjacents.


METAR-TAF: